Siletz, OR

1:39 AM PDT on October 01, 2014 (GMT -0700)
Corvallis Municipal | Change Station
CLOSE
Current Station
Airport
Location: Corvallis,
Elevation: 246 ft
Nearby Weather Stations
Active Advisory: Special Statement

Elev 246 ft 44.50 °N, 123.29 °W | Updated 1 hour ago

Clear
Clear
55 °F
Feels Like 55 °F
N
4
Wind Variable Wind from West

Today
High -- | Low -- °F
--% Chance of Precip.
Yesterday
High -- | Low -- °F
Precip. -- in
7:13 AM 6:56 PM
Waxing Crescent, 45% visible
Pressure 30.10 in
Visibility 10.0 miles
Clouds Mostly Cloudy 5500 ft
Overcast 7000 ft
Dew Point 54 °F
Humidity 94%
Rainfall 0.00 in
Snow Depth Not available.
UV 0 out of 12
Pollen .60 out of 12
Air Quality Not available.
Flu Activity Not available.
METAR KCVO 300655Z AUTO 27003KT 10SM BKN055 OVC070 13/12 A3010 RMK AO1

More Conditions Fewer Conditions

Pressure 30.10 in
Visibility 10.0 miles
Clouds Mostly Cloudy 5500 ft
Overcast 7000 ft
Dew Point 54 °F
Humidity 94%
Rainfall 0.00 in
Snow Depth Not available.
UV 0 out of 12
Pollen .60 out of 12
Air Quality Not available.
Flu Activity Not available.
METAR KCVO 300655Z AUTO 27003KT 10SM BKN055 OVC070 13/12 A3010 RMK AO1

More Conditions Fewer Conditions

10-Day Weather Forecast

Almanac

Astronomy

Oct. 01, 2014 Rise Set
Actual Time 7:13 AM PDT 6:56 PM PDT
Civil Twilight 6:44 AM PDT 7:25 PM PDT
Nautical Twilight 6:10 AM PDT 7:58 PM PDT
Astronomical Twilight 5:36 AM PDT 8:33 PM PDT
Moon 2:29 PM PDT No Moon Set
Length of Visible Light 12h 40m
Length of Day
11h 42m
Tomorrow will be 3m 6s shorter.
Waxing Crescent, 45% of the Moon is Illuminated
Today
Waxing Crescent
Oct 1
First Quarter
Oct 8
Full
Oct 15
Last Quarter
Oct 23
New

Today's Extremes

State Highs State Lows

Community

WunderPhotos

Upload Photos

1,757,902 photos uploaded!

Nearby

Snow Depth

Station Depth Elevation
Rock Springs 0 in 5550 ft
High Ridge 0 in 4980 ft
Mud Ridge 0 in 3800 ft
Strawberry 1 in 5760 ft
Marion Forks 0 in 2600 ft

Earthquake Activity

City Distance Mag. Time & Date
No recent earthquake activity has been reported nearby.
Minimum magnitude displayed is 2.5.

Coastal Water Temperatures

Place Temperature
South Beach, OR 62.1 °F
Charleston, OR 60.1 °F

Nearby Weather Stations